sensor_id;sensor_type;location;lat;lon;timestamp;P1;durP1;ratioP1;P2;durP2;ratioP2
24153;SDS011;12312;53.362;-1.518;2022-10-15T00:00:36;16.55;;;9.00;;
24153;SDS011;12312;53.362;-1.518;2022-10-15T00:03:02;12.73;;;7.25;;
24153;SDS011;12312;53.362;-1.518;2022-10-15T00:05:28;14.52;;;7.97;;
24153;SDS011;12312;53.362;-1.518;2022-10-15T00:07:54;14.30;;;7.90;;
24153;SDS011;12312;53.362;-1.518;2022-10-15T00:10:20;14.20;;;8.43;;
24153;SDS011;12312;53.362;-1.518;2022-10-15T00:12:46;15.25;;;8.18;;
24153;SDS011;12312;53.362;-1.518;2022-10-15T00:15:12;15.35;;;8.45;;
24153;SDS011;12312;53.362;-1.518;2022-10-15T00:17:38;14.55;;;8.10;;
24153;SDS011;12312;53.362;-1.518;2022-10-15T00:20:06;13.18;;;7.18;;
24153;SDS011;12312;53.362;-1.518;2022-10-15T00:22:34;15.80;;;7.30;;
24153;SDS011;12312;53.362;-1.518;2022-10-15T00:25:00;15.77;;;7.93;;
24153;SDS011;12312;53.362;-1.518;2022-10-15T00:27:25;14.80;;;7.97;;
24153;SDS011;12312;53.362;-1.518;2022-10-15T00:29:51;16.98;;;8.70;;
24153;SDS011;12312;53.362;-1.518;2022-10-15T00:32:17;22.10;;;8.93;;
24153;SDS011;12312;53.362;-1.518;2022-10-15T00:34:43;18.85;;;10.32;;
24153;SDS011;12312;53.362;-1.518;2022-10-15T00:37:09;20.33;;;11.15;;
24153;SDS011;12312;53.362;-1.518;2022-10-15T00:39:35;23.33;;;11.65;;
24153;SDS011;12312;53.362;-1.518;2022-10-15T00:42:02;20.23;;;12.48;;
24153;SDS011;12312;53.362;-1.518;2022-10-15T00:52:03;35.47;;;17.08;;
24153;SDS011;12312;53.362;-1.518;2022-10-15T00:54:31;37.35;;;17.55;;
24153;SDS011;12312;53.362;-1.518;2022-10-15T00:57:01;43.40;;;18.45;;
24153;SDS011;12312;53.362;-1.518;2022-10-15T00:59:30;40.28;;;20.17;;
24153;SDS011;12312;53.362;-1.518;2022-10-15T01:01:58;40.80;;;20.15;;
24153;SDS011;12312;53.362;-1.518;2022-10-15T01:04:25;39.22;;;19.05;;
24153;SDS011;12312;53.362;-1.518;2022-10-15T01:06:52;38.30;;;18.13;;
24153;SDS011;12312;53.362;-1.518;2022-10-15T01:09:18;43.20;;;19.00;;
24153;SDS011;12312;53.362;-1.518;2022-10-15T01:25:47;31.20;;;14.55;;
24153;SDS011;12312;53.362;-1.518;2022-10-15T01:31:24;31.27;;;13.85;;
24153;SDS011;12312;53.362;-1.518;2022-10-15T01:34:01;31.50;;;14.43;;
24153;SDS011;12312;53.362;-1.518;2022-10-15T01:36:36;34.47;;;15.63;;
24153;SDS011;12312;53.362;-1.518;2022-10-15T01:39:11;34.58;;;15.10;;
24153;SDS011;12312;53.362;-1.518;2022-10-15T01:41:51;28.60;;;13.70;;
24153;SDS011;12312;53.362;-1.518;2022-10-15T01:44:23;31.08;;;14.60;;
24153;SDS011;12312;53.362;-1.518;2022-10-15T01:47:17;29.73;;;14.57;;
24153;SDS011;12312;53.362;-1.518;2022-10-15T01:49:47;28.48;;;14.45;;
24153;SDS011;12312;53.362;-1.518;2022-10-15T01:52:17;36.53;;;16.58;;
24153;SDS011;12312;53.362;-1.518;2022-10-15T01:54:48;36.20;;;16.77;;
24153;SDS011;12312;53.362;-1.518;2022-10-15T01:57:17;30.70;;;14.93;;
24153;SDS011;12312;53.362;-1.518;2022-10-15T01:59:45;32.88;;;16.05;;
24153;SDS011;12312;53.362;-1.518;2022-10-15T02:02:11;31.48;;;15.93;;
24153;SDS011;12312;53.362;-1.518;2022-10-15T02:04:37;31.75;;;15.35;;
24153;SDS011;12312;53.362;-1.518;2022-10-15T02:07:04;25.98;;;13.82;;
24153;SDS011;12312;53.362;-1.518;2022-10-15T02:14:47;24.95;;;13.13;;
24153;SDS011;12312;53.362;-1.518;2022-10-15T02:20:00;28.13;;;12.90;;
24153;SDS011;12312;53.362;-1.518;2022-10-15T02:22:37;25.67;;;13.60;;
24153;SDS011;12312;53.362;-1.518;2022-10-15T02:25:20;27.30;;;12.93;;
24153;SDS011;12312;53.362;-1.518;2022-10-15T02:27:50;26.45;;;14.00;;
24153;SDS011;12312;53.362;-1.518;2022-10-15T02:30:18;27.70;;;14.80;;
24153;SDS011;12312;53.362;-1.518;2022-10-15T02:32:45;34.88;;;17.08;;
24153;SDS011;12312;53.362;-1.518;2022-10-15T02:35:16;32.63;;;16.88;;
24153;SDS011;12312;53.362;-1.518;2022-10-15T02:37:45;34.15;;;17.92;;
24153;SDS011;12312;53.362;-1.518;2022-10-15T02:40:14;32.17;;;16.88;;
24153;SDS011;12312;53.362;-1.518;2022-10-15T02:42:40;31.42;;;16.83;;
24153;SDS011;12312;53.362;-1.518;2022-10-15T02:45:06;32.55;;;17.20;;
24153;SDS011;12312;53.362;-1.518;2022-10-15T02:47:33;33.05;;;17.83;;
24153;SDS011;12312;53.362;-1.518;2022-10-15T02:49:59;30.05;;;16.95;;
24153;SDS011;12312;53.362;-1.518;2022-10-15T02:52:24;31.63;;;16.63;;
24153;SDS011;12312;53.362;-1.518;2022-10-15T02:54:50;33.08;;;16.85;;
24153;SDS011;12312;53.362;-1.518;2022-10-15T02:57:16;34.00;;;16.95;;
24153;SDS011;12312;53.362;-1.518;2022-10-15T02:59:42;38.92;;;18.63;;
24153;SDS011;12312;53.362;-1.518;2022-10-15T03:02:07;33.60;;;16.90;;
24153;SDS011;12312;53.362;-1.518;2022-10-15T03:04:33;37.33;;;19.33;;
24153;SDS011;12312;53.362;-1.518;2022-10-15T03:06:58;33.92;;;18.48;;
24153;SDS011;12312;53.362;-1.518;2022-10-15T03:09:24;32.28;;;17.50;;
24153;SDS011;12312;53.362;-1.518;2022-10-15T03:11:50;24.38;;;14.80;;
24153;SDS011;12312;53.362;-1.518;2022-10-15T03:14:15;26.67;;;14.70;;
24153;SDS011;12312;53.362;-1.518;2022-10-15T03:16:41;24.92;;;14.43;;
24153;SDS011;12312;53.362;-1.518;2022-10-15T03:19:08;28.05;;;15.35;;
24153;SDS011;12312;53.362;-1.518;2022-10-15T03:21:36;25.48;;;14.80;;
24153;SDS011;12312;53.362;-1.518;2022-10-15T03:24:03;28.05;;;15.68;;
24153;SDS011;12312;53.362;-1.518;2022-10-15T03:26:29;28.48;;;16.40;;
24153;SDS011;12312;53.362;-1.518;2022-10-15T03:28:55;28.65;;;15.68;;
24153;SDS011;12312;53.362;-1.518;2022-10-15T03:31:20;27.55;;;16.27;;
24153;SDS011;12312;53.362;-1.518;2022-10-15T03:33:46;27.90;;;15.20;;
24153;SDS011;12312;53.362;-1.518;2022-10-15T03:36:11;27.35;;;15.27;;
24153;SDS011;12312;53.362;-1.518;2022-10-15T03:38:40;25.85;;;13.98;;
24153;SDS011;12312;53.362;-1.518;2022-10-15T03:41:07;29.88;;;15.25;;
24153;SDS011;12312;53.362;-1.518;2022-10-15T03:43:33;27.90;;;14.27;;
24153;SDS011;12312;53.362;-1.518;2022-10-15T03:46:03;28.58;;;15.98;;
24153;SDS011;12312;53.362;-1.518;2022-10-15T03:48:29;23.20;;;13.18;;
24153;SDS011;12312;53.362;-1.518;2022-10-15T03:50:55;19.95;;;10.82;;
24153;SDS011;12312;53.362;-1.518;2022-10-15T03:53:20;20.70;;;10.23;;
24153;SDS011;12312;53.362;-1.518;2022-10-15T03:55:46;17.20;;;9.70;;
24153;SDS011;12312;53.362;-1.518;2022-10-15T03:58:14;14.13;;;8.55;;
24153;SDS011;12312;53.362;-1.518;2022-10-15T04:00:40;18.40;;;8.52;;
24153;SDS011;12312;53.362;-1.518;2022-10-15T04:03:06;14.77;;;7.93;;
24153;SDS011;12312;53.362;-1.518;2022-10-15T04:05:34;13.15;;;6.50;;
24153;SDS011;12312;53.362;-1.518;2022-10-15T04:08:00;11.65;;;6.70;;
24153;SDS011;12312;53.362;-1.518;2022-10-15T04:10:26;9.68;;;5.70;;
24153;SDS011;12312;53.362;-1.518;2022-10-15T04:12:59;11.18;;;5.90;;
24153;SDS011;12312;53.362;-1.518;2022-10-15T04:15:30;12.70;;;5.60;;
24153;SDS011;12312;53.362;-1.518;2022-10-15T04:17:55;12.55;;;6.00;;
24153;SDS011;12312;53.362;-1.518;2022-10-15T04:20:21;7.13;;;4.68;;
24153;SDS011;12312;53.362;-1.518;2022-10-15T04:22:49;7.55;;;5.03;;
24153;SDS011;12312;53.362;-1.518;2022-10-15T04:25:15;9.85;;;5.00;;
24153;SDS011;12312;53.362;-1.518;2022-10-15T04:27:41;11.57;;;5.40;;
24153;SDS011;12312;53.362;-1.518;2022-10-15T04:30:07;7.95;;;4.97;;
24153;SDS011;12312;53.362;-1.518;2022-10-15T04:32:33;6.40;;;4.63;;
24153;SDS011;12312;53.362;-1.518;2022-10-15T04:35:00;6.97;;;4.43;;
24153;SDS011;12312;53.362;-1.518;2022-10-15T04:37:26;5.32;;;4.55;;
24153;SDS011;12312;53.362;-1.518;2022-10-15T04:39:51;8.80;;;4.93;;
24153;SDS011;12312;53.362;-1.518;2022-10-15T04:42:19;10.65;;;5.15;;
24153;SDS011;12312;53.362;-1.518;2022-10-15T04:44:47;8.77;;;5.53;;
24153;SDS011;12312;53.362;-1.518;2022-10-15T04:47:13;8.98;;;6.00;;
24153;SDS011;12312;53.362;-1.518;2022-10-15T04:49:40;9.43;;;5.47;;
24153;SDS011;12312;53.362;-1.518;2022-10-15T04:52:05;10.15;;;5.00;;
24153;SDS011;12312;53.362;-1.518;2022-10-15T04:54:31;7.20;;;4.93;;
24153;SDS011;12312;53.362;-1.518;2022-10-15T04:56:56;7.80;;;5.10;;
24153;SDS011;12312;53.362;-1.518;2022-10-15T04:59:22;8.73;;;5.38;;
24153;SDS011;12312;53.362;-1.518;2022-10-15T05:01:48;7.05;;;4.72;;
24153;SDS011;12312;53.362;-1.518;2022-10-15T05:04:14;6.63;;;4.45;;
24153;SDS011;12312;53.362;-1.518;2022-10-15T05:06:40;5.80;;;4.38;;
24153;SDS011;12312;53.362;-1.518;2022-10-15T05:09:07;5.40;;;4.13;;
24153;SDS011;12312;53.362;-1.518;2022-10-15T05:11:34;5.32;;;4.00;;
24153;SDS011;12312;53.362;-1.518;2022-10-15T05:14:02;7.75;;;4.07;;
24153;SDS011;12312;53.362;-1.518;2022-10-15T05:16:29;7.85;;;4.53;;
24153;SDS011;12312;53.362;-1.518;2022-10-15T05:18:56;6.03;;;3.63;;
24153;SDS011;12312;53.362;-1.518;2022-10-15T05:21:23;5.43;;;4.30;;
24153;SDS011;12312;53.362;-1.518;2022-10-15T05:23:49;6.00;;;4.40;;
24153;SDS011;12312;53.362;-1.518;2022-10-15T05:26:18;6.05;;;3.38;;
24153;SDS011;12312;53.362;-1.518;2022-10-15T05:28:46;4.88;;;3.40;;
24153;SDS011;12312;53.362;-1.518;2022-10-15T05:31:15;4.43;;;3.40;;
24153;SDS011;12312;53.362;-1.518;2022-10-15T05:33:43;4.38;;;2.72;;
24153;SDS011;12312;53.362;-1.518;2022-10-15T05:36:10;4.63;;;3.30;;
24153;SDS011;12312;53.362;-1.518;2022-10-15T05:38:41;4.45;;;2.97;;
24153;SDS011;12312;53.362;-1.518;2022-10-15T05:41:08;4.22;;;3.15;;
24153;SDS011;12312;53.362;-1.518;2022-10-15T05:43:34;5.53;;;3.60;;
24153;SDS011;12312;53.362;-1.518;2022-10-15T05:46:00;5.53;;;4.32;;
24153;SDS011;12312;53.362;-1.518;2022-10-15T05:48:27;6.00;;;4.25;;
24153;SDS011;12312;53.362;-1.518;2022-10-15T05:51:01;6.70;;;3.67;;
24153;SDS011;12312;53.362;-1.518;2022-10-15T05:53:31;5.53;;;3.63;;
24153;SDS011;12312;53.362;-1.518;2022-10-15T05:55:57;7.95;;;3.38;;
24153;SDS011;12312;53.362;-1.518;2022-10-15T05:58:26;6.72;;;3.53;;
24153;SDS011;12312;53.362;-1.518;2022-10-15T06:00:57;3.97;;;3.00;;
24153;SDS011;12312;53.362;-1.518;2022-10-15T06:03:24;6.22;;;3.50;;
24153;SDS011;12312;53.362;-1.518;2022-10-15T06:05:52;6.38;;;3.45;;
24153;SDS011;12312;53.362;-1.518;2022-10-15T06:08:21;6.28;;;3.00;;
24153;SDS011;12312;53.362;-1.518;2022-10-15T06:10:48;4.63;;;2.58;;
24153;SDS011;12312;53.362;-1.518;2022-10-15T06:13:19;8.18;;;3.20;;
24153;SDS011;12312;53.362;-1.518;2022-10-15T06:15:46;5.60;;;2.60;;
24153;SDS011;12312;53.362;-1.518;2022-10-15T06:18:12;7.65;;;2.92;;
24153;SDS011;12312;53.362;-1.518;2022-10-15T06:20:41;7.60;;;2.95;;
24153;SDS011;12312;53.362;-1.518;2022-10-15T06:23:09;7.30;;;2.58;;
24153;SDS011;12312;53.362;-1.518;2022-10-15T06:25:35;4.78;;;2.42;;
24153;SDS011;12312;53.362;-1.518;2022-10-15T06:28:02;6.88;;;2.83;;
24153;SDS011;12312;53.362;-1.518;2022-10-15T06:30:31;3.72;;;2.20;;
24153;SDS011;12312;53.362;-1.518;2022-10-15T06:32:57;4.90;;;3.00;;
24153;SDS011;12312;53.362;-1.518;2022-10-15T06:35:24;6.43;;;3.25;;
24153;SDS011;12312;53.362;-1.518;2022-10-15T06:37:54;4.22;;;2.83;;
24153;SDS011;12312;53.362;-1.518;2022-10-15T06:40:23;5.93;;;3.35;;
24153;SDS011;12312;53.362;-1.518;2022-10-15T06:42:52;5.25;;;2.30;;
24153;SDS011;12312;53.362;-1.518;2022-10-15T06:45:17;4.43;;;2.17;;
24153;SDS011;12312;53.362;-1.518;2022-10-15T06:47:43;4.15;;;2.13;;
24153;SDS011;12312;53.362;-1.518;2022-10-15T06:50:10;4.55;;;2.30;;
24153;SDS011;12312;53.362;-1.518;2022-10-15T06:52:36;3.75;;;2.47;;
24153;SDS011;12312;53.362;-1.518;2022-10-15T06:55:03;5.22;;;2.20;;
24153;SDS011;12312;53.362;-1.518;2022-10-15T06:57:29;4.60;;;2.30;;
24153;SDS011;12312;53.362;-1.518;2022-10-15T06:59:55;7.15;;;2.80;;
24153;SDS011;12312;53.362;-1.518;2022-10-15T07:02:22;4.22;;;2.40;;
24153;SDS011;12312;53.362;-1.518;2022-10-15T07:04:48;5.70;;;2.45;;
24153;SDS011;12312;53.362;-1.518;2022-10-15T07:07:15;5.45;;;2.60;;
24153;SDS011;12312;53.362;-1.518;2022-10-15T07:09:40;4.45;;;2.38;;
24153;SDS011;12312;53.362;-1.518;2022-10-15T07:12:06;7.80;;;4.07;;
24153;SDS011;12312;53.362;-1.518;2022-10-15T07:14:33;4.53;;;2.13;;
24153;SDS011;12312;53.362;-1.518;2022-10-15T07:16:59;3.33;;;2.20;;
24153;SDS011;12312;53.362;-1.518;2022-10-15T07:19:28;6.25;;;2.10;;
24153;SDS011;12312;53.362;-1.518;2022-10-15T07:21:54;5.55;;;2.45;;
24153;SDS011;12312;53.362;-1.518;2022-10-15T07:24:19;4.60;;;2.60;;
24153;SDS011;12312;53.362;-1.518;2022-10-15T07:26:46;6.47;;;2.13;;
24153;SDS011;12312;53.362;-1.518;2022-10-15T07:29:13;5.75;;;2.10;;
24153;SDS011;12312;53.362;-1.518;2022-10-15T07:31:39;4.85;;;2.00;;
24153;SDS011;12312;53.362;-1.518;2022-10-15T07:34:05;7.53;;;1.90;;
24153;SDS011;12312;53.362;-1.518;2022-10-15T07:36:30;4.10;;;1.60;;
24153;SDS011;12312;53.362;-1.518;2022-10-15T07:38:57;4.07;;;1.45;;
24153;SDS011;12312;53.362;-1.518;2022-10-15T07:41:22;6.43;;;1.13;;
24153;SDS011;12312;53.362;-1.518;2022-10-15T07:43:50;7.57;;;1.70;;
24153;SDS011;12312;53.362;-1.518;2022-10-15T07:46:18;5.13;;;1.20;;
24153;SDS011;12312;53.362;-1.518;2022-10-15T07:48:44;3.45;;;1.20;;
24153;SDS011;12312;53.362;-1.518;2022-10-15T07:51:10;4.38;;;1.40;;
24153;SDS011;12312;53.362;-1.518;2022-10-15T07:53:38;8.57;;;1.60;;
24153;SDS011;12312;53.362;-1.518;2022-10-15T07:56:06;7.07;;;1.30;;
24153;SDS011;12312;53.362;-1.518;2022-10-15T07:58:39;5.80;;;1.00;;
24153;SDS011;12312;53.362;-1.518;2022-10-15T08:01:08;6.43;;;1.30;;
24153;SDS011;12312;53.362;-1.518;2022-10-15T08:03:35;5.05;;;1.20;;
24153;SDS011;12312;53.362;-1.518;2022-10-15T08:06:04;4.18;;;1.00;;
24153;SDS011;12312;53.362;-1.518;2022-10-15T08:08:32;5.78;;;1.10;;
24153;SDS011;12312;53.362;-1.518;2022-10-15T08:11:03;3.08;;;0.80;;
24153;SDS011;12312;53.362;-1.518;2022-10-15T08:13:33;3.65;;;1.10;;
24153;SDS011;12312;53.362;-1.518;2022-10-15T08:16:04;5.55;;;1.00;;
24153;SDS011;12312;53.362;-1.518;2022-10-15T08:18:30;5.20;;;1.05;;
24153;SDS011;12312;53.362;-1.518;2022-10-15T08:20:57;6.28;;;1.10;;
24153;SDS011;12312;53.362;-1.518;2022-10-15T08:23:24;5.55;;;1.08;;
24153;SDS011;12312;53.362;-1.518;2022-10-15T08:25:50;5.60;;;1.20;;
24153;SDS011;12312;53.362;-1.518;2022-10-15T08:28:16;6.72;;;1.40;;
24153;SDS011;12312;53.362;-1.518;2022-10-15T08:30:42;2.10;;;0.82;;
24153;SDS011;12312;53.362;-1.518;2022-10-15T08:33:08;4.75;;;0.85;;
24153;SDS011;12312;53.362;-1.518;2022-10-15T08:35:34;5.30;;;0.93;;
24153;SDS011;12312;53.362;-1.518;2022-10-15T08:38:03;3.25;;;1.10;;
24153;SDS011;12312;53.362;-1.518;2022-10-15T08:40:29;1.65;;;0.82;;
24153;SDS011;12312;53.362;-1.518;2022-10-15T08:42:57;4.25;;;1.13;;
24153;SDS011;12312;53.362;-1.518;2022-10-15T08:45:24;4.57;;;1.17;;
24153;SDS011;12312;53.362;-1.518;2022-10-15T08:47:57;7.18;;;1.00;;
24153;SDS011;12312;53.362;-1.518;2022-10-15T08:52:59;5.35;;;1.00;;
24153;SDS011;12312;53.362;-1.518;2022-10-15T08:55:28;9.27;;;1.20;;
24153;SDS011;12312;53.362;-1.518;2022-10-15T09:06:19;5.75;;;0.65;;
24153;SDS011;12312;53.362;-1.518;2022-10-15T09:09:02;3.70;;;0.82;;
24153;SDS011;12312;53.362;-1.518;2022-10-15T09:14:54;5.65;;;0.90;;
24153;SDS011;12312;53.362;-1.518;2022-10-15T09:17:23;5.80;;;1.00;;
24153;SDS011;12312;53.362;-1.518;2022-10-15T09:20:04;2.72;;;0.90;;
24153;SDS011;12312;53.362;-1.518;2022-10-15T09:22:37;6.13;;;1.10;;
24153;SDS011;12312;53.362;-1.518;2022-10-15T09:25:18;5.35;;;1.30;;
24153;SDS011;12312;53.362;-1.518;2022-10-15T09:27:46;3.53;;;1.00;;
24153;SDS011;12312;53.362;-1.518;2022-10-15T09:32:59;4.13;;;0.75;;
24153;SDS011;12312;53.362;-1.518;2022-10-15T09:35:42;6.93;;;0.90;;
24153;SDS011;12312;53.362;-1.518;2022-10-15T09:43:24;4.68;;;1.02;;
24153;SDS011;12312;53.362;-1.518;2022-10-15T09:45:57;6.18;;;0.98;;
24153;SDS011;12312;53.362;-1.518;2022-10-15T09:48:22;5.85;;;1.00;;
24153;SDS011;12312;53.362;-1.518;2022-10-15T09:50:57;4.25;;;1.10;;
24153;SDS011;12312;53.362;-1.518;2022-10-15T09:53:40;6.82;;;0.95;;
24153;SDS011;12312;53.362;-1.518;2022-10-15T09:56:30;7.38;;;1.20;;
24153;SDS011;12312;53.362;-1.518;2022-10-15T09:59:00;4.70;;;0.85;;
24153;SDS011;12312;53.362;-1.518;2022-10-15T10:01:27;5.20;;;1.40;;
24153;SDS011;12312;53.362;-1.518;2022-10-15T10:04:16;4.05;;;1.25;;
24153;SDS011;12312;53.362;-1.518;2022-10-15T10:06:48;7.25;;;1.23;;
24153;SDS011;12312;53.362;-1.518;2022-10-15T10:09:18;6.43;;;1.10;;
24153;SDS011;12312;53.362;-1.518;2022-10-15T10:14:58;5.70;;;1.25;;
24153;SDS011;12312;53.362;-1.518;2022-10-15T10:17:27;6.68;;;1.00;;
24153;SDS011;12312;53.362;-1.518;2022-10-15T10:20:09;5.10;;;1.20;;
24153;SDS011;12312;53.362;-1.518;2022-10-15T10:22:43;5.60;;;1.53;;
24153;SDS011;12312;53.362;-1.518;2022-10-15T10:27:52;10.52;;;1.13;;
24153;SDS011;12312;53.362;-1.518;2022-10-15T10:30:18;5.20;;;1.20;;
24153;SDS011;12312;53.362;-1.518;2022-10-15T10:32:44;5.55;;;1.20;;
24153;SDS011;12312;53.362;-1.518;2022-10-15T10:35:21;6.40;;;1.45;;
24153;SDS011;12312;53.362;-1.518;2022-10-15T10:37:48;5.80;;;0.88;;
24153;SDS011;12312;53.362;-1.518;2022-10-15T10:40:21;3.03;;;0.90;;
24153;SDS011;12312;53.362;-1.518;2022-10-15T10:42:49;6.40;;;1.30;;
24153;SDS011;12312;53.362;-1.518;2022-10-15T10:45:35;4.95;;;1.00;;
24153;SDS011;12312;53.362;-1.518;2022-10-15T10:48:16;2.45;;;0.73;;
24153;SDS011;12312;53.362;-1.518;2022-10-15T10:50:45;5.72;;;1.00;;
24153;SDS011;12312;53.362;-1.518;2022-10-15T10:55:43;6.25;;;1.02;;
24153;SDS011;12312;53.362;-1.518;2022-10-15T10:58:11;6.93;;;1.08;;
24153;SDS011;12312;53.362;-1.518;2022-10-15T11:00:44;4.68;;;0.70;;
24153;SDS011;12312;53.362;-1.518;2022-10-15T11:05:44;7.82;;;1.08;;
24153;SDS011;12312;53.362;-1.518;2022-10-15T11:08:17;7.60;;;1.38;;
24153;SDS011;12312;53.362;-1.518;2022-10-15T11:10:55;5.65;;;1.17;;
24153;SDS011;12312;53.362;-1.518;2022-10-15T11:13:40;5.32;;;1.17;;
24153;SDS011;12312;53.362;-1.518;2022-10-15T11:16:23;2.65;;;0.82;;
24153;SDS011;12312;53.362;-1.518;2022-10-15T11:18:55;6.70;;;0.80;;
24153;SDS011;12312;53.362;-1.518;2022-10-15T11:24:24;4.22;;;0.70;;
24153;SDS011;12312;53.362;-1.518;2022-10-15T11:30:04;3.90;;;0.98;;
24153;SDS011;12312;53.362;-1.518;2022-10-15T11:32:50;3.75;;;0.73;;
24153;SDS011;12312;53.362;-1.518;2022-10-15T11:38:04;3.83;;;0.68;;
24153;SDS011;12312;53.362;-1.518;2022-10-15T11:54:22;5.95;;;1.08;;
24153;SDS011;12312;53.362;-1.518;2022-10-15T11:56:54;6.45;;;1.20;;
24153;SDS011;12312;53.362;-1.518;2022-10-15T12:02:07;3.50;;;0.90;;
24153;SDS011;12312;53.362;-1.518;2022-10-15T12:04:44;8.40;;;1.02;;
24153;SDS011;12312;53.362;-1.518;2022-10-15T12:07:22;5.05;;;0.98;;
24153;SDS011;12312;53.362;-1.518;2022-10-15T12:09:55;6.15;;;0.75;;
24153;SDS011;12312;53.362;-1.518;2022-10-15T12:12:39;5.40;;;0.93;;
24153;SDS011;12312;53.362;-1.518;2022-10-15T12:15:25;5.80;;;0.70;;
24153;SDS011;12312;53.362;-1.518;2022-10-15T12:20:45;10.65;;;1.20;;
24153;SDS011;12312;53.362;-1.518;2022-10-15T12:29:03;4.88;;;0.70;;
24153;SDS011;12312;53.362;-1.518;2022-10-15T12:31:45;9.27;;;1.10;;
24153;SDS011;12312;53.362;-1.518;2022-10-15T12:34:26;5.90;;;0.98;;
24153;SDS011;12312;53.362;-1.518;2022-10-15T12:37:02;7.47;;;1.30;;
24153;SDS011;12312;53.362;-1.518;2022-10-15T12:39:33;7.00;;;0.82;;
24153;SDS011;12312;53.362;-1.518;2022-10-15T12:42:04;8.80;;;2.33;;
24153;SDS011;12312;53.362;-1.518;2022-10-15T12:44:40;3.28;;;0.95;;
24153;SDS011;12312;53.362;-1.518;2022-10-15T12:47:12;6.38;;;1.20;;
24153;SDS011;12312;53.362;-1.518;2022-10-15T12:55:38;5.85;;;1.40;;
24153;SDS011;12312;53.362;-1.518;2022-10-15T13:01:48;4.00;;;0.90;;
24153;SDS011;12312;53.362;-1.518;2022-10-15T13:03:52;4.90;;;0.90;;
24153;SDS011;12312;53.362;-1.518;2022-10-15T13:11:37;5.05;;;0.77;;
24153;SDS011;12312;53.362;-1.518;2022-10-15T13:16:34;7.20;;;0.95;;
24153;SDS011;12312;53.362;-1.518;2022-10-15T13:19:00;4.65;;;0.73;;
24153;SDS011;12312;53.362;-1.518;2022-10-15T13:21:50;5.13;;;1.15;;
24153;SDS011;12312;53.362;-1.518;2022-10-15T13:24:19;5.60;;;0.80;;
24153;SDS011;12312;53.362;-1.518;2022-10-15T13:26:49;9.20;;;0.98;;
24153;SDS011;12312;53.362;-1.518;2022-10-15T13:29:20;6.15;;;0.90;;
24153;SDS011;12312;53.362;-1.518;2022-10-15T13:31:48;7.32;;;0.90;;
24153;SDS011;12312;53.362;-1.518;2022-10-15T13:36:43;6.50;;;1.27;;
24153;SDS011;12312;53.362;-1.518;2022-10-15T13:39:21;8.23;;;2.50;;
24153;SDS011;12312;53.362;-1.518;2022-10-15T13:42:01;12.07;;;4.97;;
24153;SDS011;12312;53.362;-1.518;2022-10-15T13:47:32;8.93;;;3.60;;
24153;SDS011;12312;53.362;-1.518;2022-10-15T13:50:17;6.63;;;3.28;;
24153;SDS011;12312;53.362;-1.518;2022-10-15T13:52:45;7.07;;;3.17;;
24153;SDS011;12312;53.362;-1.518;2022-10-15T13:55:36;5.82;;;1.92;;
24153;SDS011;12312;53.362;-1.518;2022-10-15T14:00:34;5.28;;;0.98;;
24153;SDS011;12312;53.362;-1.518;2022-10-15T14:03:17;3.42;;;0.80;;
24153;SDS011;12312;53.362;-1.518;2022-10-15T14:05:49;3.85;;;0.82;;
24153;SDS011;12312;53.362;-1.518;2022-10-15T14:08:18;4.50;;;0.80;;
24153;SDS011;12312;53.362;-1.518;2022-10-15T14:10:56;5.88;;;1.55;;
24153;SDS011;12312;53.362;-1.518;2022-10-15T14:13:23;4.15;;;0.80;;
24153;SDS011;12312;53.362;-1.518;2022-10-15T14:18:25;6.65;;;0.85;;
24153;SDS011;12312;53.362;-1.518;2022-10-15T14:20:54;4.22;;;1.00;;
24153;SDS011;12312;53.362;-1.518;2022-10-15T14:23:24;7.00;;;0.85;;
24153;SDS011;12312;53.362;-1.518;2022-10-15T14:26:01;6.07;;;0.80;;
24153;SDS011;12312;53.362;-1.518;2022-10-15T14:28:29;7.57;;;1.30;;
24153;SDS011;12312;53.362;-1.518;2022-10-15T14:30:57;7.70;;;1.02;;
24153;SDS011;12312;53.362;-1.518;2022-10-15T14:33:38;8.77;;;1.20;;
24153;SDS011;12312;53.362;-1.518;2022-10-15T14:38:35;9.77;;;1.30;;
24153;SDS011;12312;53.362;-1.518;2022-10-15T14:43:59;6.60;;;1.10;;
24153;SDS011;12312;53.362;-1.518;2022-10-15T14:46:42;8.35;;;1.75;;
24153;SDS011;12312;53.362;-1.518;2022-10-15T14:49:23;6.93;;;1.20;;
24153;SDS011;12312;53.362;-1.518;2022-10-15T14:51:54;11.43;;;1.75;;
24153;SDS011;12312;53.362;-1.518;2022-10-15T14:54:33;9.13;;;1.30;;
24153;SDS011;12312;53.362;-1.518;2022-10-15T14:57:09;11.07;;;1.60;;
24153;SDS011;12312;53.362;-1.518;2022-10-15T14:59:41;13.38;;;2.00;;
24153;SDS011;12312;53.362;-1.518;2022-10-15T15:02:09;13.52;;;1.80;;
24153;SDS011;12312;53.362;-1.518;2022-10-15T15:04:41;7.30;;;1.70;;
24153;SDS011;12312;53.362;-1.518;2022-10-15T15:07:14;10.05;;;1.90;;
24153;SDS011;12312;53.362;-1.518;2022-10-15T15:09:42;13.32;;;2.05;;
24153;SDS011;12312;53.362;-1.518;2022-10-15T15:12:13;9.95;;;1.80;;
24153;SDS011;12312;53.362;-1.518;2022-10-15T15:14:41;8.52;;;1.75;;
24153;SDS011;12312;53.362;-1.518;2022-10-15T15:17:09;8.75;;;1.70;;
24153;SDS011;12312;53.362;-1.518;2022-10-15T15:19:39;7.45;;;1.67;;
24153;SDS011;12312;53.362;-1.518;2022-10-15T15:22:07;12.27;;;1.50;;
24153;SDS011;12312;53.362;-1.518;2022-10-15T15:24:35;10.60;;;1.80;;
24153;SDS011;12312;53.362;-1.518;2022-10-15T15:27:01;9.60;;;1.75;;
24153;SDS011;12312;53.362;-1.518;2022-10-15T15:29:27;10.55;;;1.58;;
24153;SDS011;12312;53.362;-1.518;2022-10-15T15:31:53;11.20;;;1.60;;
24153;SDS011;12312;53.362;-1.518;2022-10-15T15:34:19;10.82;;;2.17;;
24153;SDS011;12312;53.362;-1.518;2022-10-15T15:36:44;9.27;;;1.40;;
24153;SDS011;12312;53.362;-1.518;2022-10-15T15:39:11;8.27;;;1.70;;
24153;SDS011;12312;53.362;-1.518;2022-10-15T15:41:37;14.30;;;2.30;;
24153;SDS011;12312;53.362;-1.518;2022-10-15T15:44:02;8.80;;;1.40;;
24153;SDS011;12312;53.362;-1.518;2022-10-15T15:46:33;10.50;;;1.75;;
24153;SDS011;12312;53.362;-1.518;2022-10-15T15:48:58;8.23;;;1.55;;
24153;SDS011;12312;53.362;-1.518;2022-10-15T15:51:25;10.05;;;2.28;;
24153;SDS011;12312;53.362;-1.518;2022-10-15T15:53:56;6.63;;;1.50;;
24153;SDS011;12312;53.362;-1.518;2022-10-15T15:56:23;10.25;;;1.80;;
24153;SDS011;12312;53.362;-1.518;2022-10-15T15:58:49;7.30;;;1.50;;
24153;SDS011;12312;53.362;-1.518;2022-10-15T16:01:15;7.85;;;1.42;;
24153;SDS011;12312;53.362;-1.518;2022-10-15T16:03:42;9.80;;;1.73;;
24153;SDS011;12312;53.362;-1.518;2022-10-15T16:06:08;7.22;;;1.67;;
24153;SDS011;12312;53.362;-1.518;2022-10-15T16:08:34;7.93;;;1.90;;
24153;SDS011;12312;53.362;-1.518;2022-10-15T16:11:05;5.68;;;1.40;;
24153;SDS011;12312;53.362;-1.518;2022-10-15T16:13:32;9.98;;;1.90;;
24153;SDS011;12312;53.362;-1.518;2022-10-15T16:15:58;6.22;;;1.52;;
24153;SDS011;12312;53.362;-1.518;2022-10-15T16:18:23;8.75;;;2.20;;
24153;SDS011;12312;53.362;-1.518;2022-10-15T16:20:49;10.75;;;1.50;;
24153;SDS011;12312;53.362;-1.518;2022-10-15T16:23:15;9.15;;;1.60;;
24153;SDS011;12312;53.362;-1.518;2022-10-15T16:25:41;8.40;;;1.98;;
24153;SDS011;12312;53.362;-1.518;2022-10-15T16:28:06;10.23;;;1.80;;
24153;SDS011;12312;53.362;-1.518;2022-10-15T16:30:32;13.90;;;1.70;;
24153;SDS011;12312;53.362;-1.518;2022-10-15T16:32:58;7.38;;;1.80;;
24153;SDS011;12312;53.362;-1.518;2022-10-15T16:35:24;11.70;;;1.90;;
24153;SDS011;12312;53.362;-1.518;2022-10-15T16:37:50;8.98;;;2.30;;
24153;SDS011;12312;53.362;-1.518;2022-10-15T16:40:20;13.30;;;2.60;;
24153;SDS011;12312;53.362;-1.518;2022-10-15T16:42:46;9.65;;;1.80;;
24153;SDS011;12312;53.362;-1.518;2022-10-15T16:45:12;11.90;;;2.05;;
24153;SDS011;12312;53.362;-1.518;2022-10-15T16:47:38;15.27;;;2.20;;
24153;SDS011;12312;53.362;-1.518;2022-10-15T16:50:04;8.45;;;2.05;;
24153;SDS011;12312;53.362;-1.518;2022-10-15T16:52:32;12.60;;;2.42;;